sensor_id;sensor_type;location;lat;lon;timestamp;P1;durP1;ratioP1;P2;durP2;ratioP2
61250;SDS011;47126;47.508;8.590;2022-12-07T00:01:09;49.65;;;21.00;;
61250;SDS011;47126;47.508;8.590;2022-12-07T00:03:36;47.97;;;21.30;;
61250;SDS011;47126;47.508;8.590;2022-12-07T00:06:02;49.85;;;22.08;;
61250;SDS011;47126;47.508;8.590;2022-12-07T00:08:29;43.60;;;20.27;;
61250;SDS011;47126;47.508;8.590;2022-12-07T00:11:00;50.78;;;22.10;;
61250;SDS011;47126;47.508;8.590;2022-12-07T00:13:26;50.22;;;21.52;;
61250;SDS011;47126;47.508;8.590;2022-12-07T00:15:51;49.97;;;21.40;;
61250;SDS011;47126;47.508;8.590;2022-12-07T00:18:17;47.63;;;20.63;;
61250;SDS011;47126;47.508;8.590;2022-12-07T00:20:43;44.58;;;19.73;;
61250;SDS011;47126;47.508;8.590;2022-12-07T00:23:09;46.65;;;21.45;;
61250;SDS011;47126;47.508;8.590;2022-12-07T00:25:35;46.50;;;21.15;;
61250;SDS011;47126;47.508;8.590;2022-12-07T00:28:01;48.55;;;20.00;;
61250;SDS011;47126;47.508;8.590;2022-12-07T00:30:27;43.85;;;20.77;;
61250;SDS011;47126;47.508;8.590;2022-12-07T00:32:53;45.30;;;20.83;;
61250;SDS011;47126;47.508;8.590;2022-12-07T00:35:19;46.83;;;21.20;;
61250;SDS011;47126;47.508;8.590;2022-12-07T00:37:45;47.35;;;20.58;;
61250;SDS011;47126;47.508;8.590;2022-12-07T00:40:11;44.63;;;21.02;;
61250;SDS011;47126;47.508;8.590;2022-12-07T00:42:37;44.95;;;21.17;;
61250;SDS011;47126;47.508;8.590;2022-12-07T00:45:03;47.58;;;23.17;;
61250;SDS011;47126;47.508;8.590;2022-12-07T00:47:29;45.72;;;21.70;;
61250;SDS011;47126;47.508;8.590;2022-12-07T00:49:55;45.35;;;20.65;;
61250;SDS011;47126;47.508;8.590;2022-12-07T00:52:21;48.53;;;20.17;;
61250;SDS011;47126;47.508;8.590;2022-12-07T00:54:47;48.03;;;21.55;;
61250;SDS011;47126;47.508;8.590;2022-12-07T00:57:13;52.15;;;21.95;;
61250;SDS011;47126;47.508;8.590;2022-12-07T00:59:39;46.50;;;21.88;;
61250;SDS011;47126;47.508;8.590;2022-12-07T01:02:05;44.85;;;20.88;;
61250;SDS011;47126;47.508;8.590;2022-12-07T01:04:32;47.35;;;22.55;;
61250;SDS011;47126;47.508;8.590;2022-12-07T01:06:59;44.22;;;21.08;;
61250;SDS011;47126;47.508;8.590;2022-12-07T01:09:25;45.30;;;19.88;;
61250;SDS011;47126;47.508;8.590;2022-12-07T01:11:51;47.75;;;22.00;;
61250;SDS011;47126;47.508;8.590;2022-12-07T01:14:17;49.17;;;21.95;;
61250;SDS011;47126;47.508;8.590;2022-12-07T01:16:43;46.67;;;21.13;;
61250;SDS011;47126;47.508;8.590;2022-12-07T01:19:08;49.05;;;20.75;;
61250;SDS011;47126;47.508;8.590;2022-12-07T01:21:35;45.38;;;22.02;;
61250;SDS011;47126;47.508;8.590;2022-12-07T01:24:03;42.65;;;21.20;;
61250;SDS011;47126;47.508;8.590;2022-12-07T01:26:29;44.72;;;21.02;;
61250;SDS011;47126;47.508;8.590;2022-12-07T01:28:55;42.42;;;20.33;;
61250;SDS011;47126;47.508;8.590;2022-12-07T01:31:24;48.67;;;20.88;;
61250;SDS011;47126;47.508;8.590;2022-12-07T01:33:51;43.83;;;21.50;;
61250;SDS011;47126;47.508;8.590;2022-12-07T01:38:47;44.00;;;20.85;;
61250;SDS011;47126;47.508;8.590;2022-12-07T01:41:14;45.35;;;21.10;;
61250;SDS011;47126;47.508;8.590;2022-12-07T01:46:25;58.88;;;20.48;;
61250;SDS011;47126;47.508;8.590;2022-12-07T01:48:51;40.03;;;18.98;;
61250;SDS011;47126;47.508;8.590;2022-12-07T01:51:17;46.08;;;20.50;;
61250;SDS011;47126;47.508;8.590;2022-12-07T01:53:43;46.28;;;20.75;;
61250;SDS011;47126;47.508;8.590;2022-12-07T01:56:12;47.25;;;20.27;;
61250;SDS011;47126;47.508;8.590;2022-12-07T01:58:40;47.75;;;20.88;;
61250;SDS011;47126;47.508;8.590;2022-12-07T02:01:06;47.70;;;19.88;;
61250;SDS011;47126;47.508;8.590;2022-12-07T02:03:39;43.63;;;20.52;;
61250;SDS011;47126;47.508;8.590;2022-12-07T02:06:05;48.40;;;21.10;;
61250;SDS011;47126;47.508;8.590;2022-12-07T02:08:32;44.17;;;20.45;;
61250;SDS011;47126;47.508;8.590;2022-12-07T02:10:59;52.92;;;22.60;;
61250;SDS011;47126;47.508;8.590;2022-12-07T02:13:26;44.53;;;21.40;;
61250;SDS011;47126;47.508;8.590;2022-12-07T02:24:03;47.65;;;22.25;;
61250;SDS011;47126;47.508;8.590;2022-12-07T02:29:24;47.42;;;21.60;;
61250;SDS011;47126;47.508;8.590;2022-12-07T02:32:03;51.75;;;22.95;;
61250;SDS011;47126;47.508;8.590;2022-12-07T02:34:33;55.63;;;24.02;;
61250;SDS011;47126;47.508;8.590;2022-12-07T02:37:02;44.05;;;21.83;;
61250;SDS011;47126;47.508;8.590;2022-12-07T02:39:43;50.03;;;22.73;;
61250;SDS011;47126;47.508;8.590;2022-12-07T02:42:17;50.33;;;22.65;;
61250;SDS011;47126;47.508;8.590;2022-12-07T02:44:44;49.22;;;22.17;;
61250;SDS011;47126;47.508;8.590;2022-12-07T02:47:12;51.05;;;21.85;;
61250;SDS011;47126;47.508;8.590;2022-12-07T02:49:39;47.20;;;21.88;;
61250;SDS011;47126;47.508;8.590;2022-12-07T02:52:05;47.60;;;22.63;;
61250;SDS011;47126;47.508;8.590;2022-12-07T02:54:31;47.97;;;22.40;;
61250;SDS011;47126;47.508;8.590;2022-12-07T03:07:11;44.20;;;21.95;;
61250;SDS011;47126;47.508;8.590;2022-12-07T03:10:28;50.20;;;22.52;;
61250;SDS011;47126;47.508;8.590;2022-12-07T03:12:34;46.47;;;22.17;;
61250;SDS011;47126;47.508;8.590;2022-12-07T03:15:05;44.78;;;22.40;;
61250;SDS011;47126;47.508;8.590;2022-12-07T03:17:35;64.63;;;24.10;;
61250;SDS011;47126;47.508;8.590;2022-12-07T03:20:02;48.60;;;22.65;;
61250;SDS011;47126;47.508;8.590;2022-12-07T03:22:30;50.38;;;21.95;;
61250;SDS011;47126;47.508;8.590;2022-12-07T03:24:58;49.67;;;23.67;;
61250;SDS011;47126;47.508;8.590;2022-12-07T03:27:26;47.92;;;22.38;;
61250;SDS011;47126;47.508;8.590;2022-12-07T03:30:03;49.55;;;22.63;;
61250;SDS011;47126;47.508;8.590;2022-12-07T03:34:57;48.60;;;23.02;;
61250;SDS011;47126;47.508;8.590;2022-12-07T03:40:14;51.50;;;23.60;;
61250;SDS011;47126;47.508;8.590;2022-12-07T03:42:41;51.15;;;23.55;;
61250;SDS011;47126;47.508;8.590;2022-12-07T03:45:08;46.88;;;22.23;;
61250;SDS011;47126;47.508;8.590;2022-12-07T03:55:35;50.25;;;23.48;;
61250;SDS011;47126;47.508;8.590;2022-12-07T03:58:03;52.20;;;23.35;;
61250;SDS011;47126;47.508;8.590;2022-12-07T04:00:30;48.58;;;22.50;;
61250;SDS011;47126;47.508;8.590;2022-12-07T04:02:56;49.42;;;22.50;;
61250;SDS011;47126;47.508;8.590;2022-12-07T04:05:22;47.80;;;22.10;;
61250;SDS011;47126;47.508;8.590;2022-12-07T04:07:48;48.03;;;23.05;;
61250;SDS011;47126;47.508;8.590;2022-12-07T04:10:14;51.35;;;23.08;;
61250;SDS011;47126;47.508;8.590;2022-12-07T04:12:40;48.88;;;21.80;;
61250;SDS011;47126;47.508;8.590;2022-12-07T04:15:06;45.53;;;22.83;;
61250;SDS011;47126;47.508;8.590;2022-12-07T04:17:32;52.72;;;23.45;;
61250;SDS011;47126;47.508;8.590;2022-12-07T04:19:58;49.10;;;22.83;;
61250;SDS011;47126;47.508;8.590;2022-12-07T04:22:24;50.88;;;22.77;;
61250;SDS011;47126;47.508;8.590;2022-12-07T04:24:50;50.55;;;23.83;;
61250;SDS011;47126;47.508;8.590;2022-12-07T04:27:16;55.10;;;23.15;;
61250;SDS011;47126;47.508;8.590;2022-12-07T04:29:42;47.85;;;22.75;;
61250;SDS011;47126;47.508;8.590;2022-12-07T04:32:08;49.72;;;22.60;;
61250;SDS011;47126;47.508;8.590;2022-12-07T04:34:34;54.08;;;24.75;;
61250;SDS011;47126;47.508;8.590;2022-12-07T04:37:00;55.28;;;25.33;;
61250;SDS011;47126;47.508;8.590;2022-12-07T04:39:27;47.78;;;22.00;;
61250;SDS011;47126;47.508;8.590;2022-12-07T04:41:54;48.33;;;22.40;;
61250;SDS011;47126;47.508;8.590;2022-12-07T04:44:20;52.58;;;23.50;;
61250;SDS011;47126;47.508;8.590;2022-12-07T04:46:46;50.63;;;22.35;;
61250;SDS011;47126;47.508;8.590;2022-12-07T04:49:13;54.97;;;24.27;;
61250;SDS011;47126;47.508;8.590;2022-12-07T04:51:39;47.25;;;23.33;;
61250;SDS011;47126;47.508;8.590;2022-12-07T04:54:05;49.17;;;23.40;;
61250;SDS011;47126;47.508;8.590;2022-12-07T04:56:31;49.78;;;24.25;;
61250;SDS011;47126;47.508;8.590;2022-12-07T04:58:57;48.53;;;23.17;;
61250;SDS011;47126;47.508;8.590;2022-12-07T05:01:23;53.80;;;23.45;;
61250;SDS011;47126;47.508;8.590;2022-12-07T05:03:50;48.88;;;22.27;;
61250;SDS011;47126;47.508;8.590;2022-12-07T05:06:16;51.20;;;23.52;;
61250;SDS011;47126;47.508;8.590;2022-12-07T05:08:42;52.00;;;23.85;;
61250;SDS011;47126;47.508;8.590;2022-12-07T05:11:09;52.45;;;23.77;;
61250;SDS011;47126;47.508;8.590;2022-12-07T05:13:55;49.97;;;21.63;;
61250;SDS011;47126;47.508;8.590;2022-12-07T05:16:21;50.53;;;23.83;;
61250;SDS011;47126;47.508;8.590;2022-12-07T05:18:47;55.10;;;23.55;;
61250;SDS011;47126;47.508;8.590;2022-12-07T05:21:13;49.88;;;23.35;;
61250;SDS011;47126;47.508;8.590;2022-12-07T05:23:39;46.15;;;22.63;;
61250;SDS011;47126;47.508;8.590;2022-12-07T05:26:05;52.97;;;22.77;;
61250;SDS011;47126;47.508;8.590;2022-12-07T05:28:31;52.75;;;25.20;;
61250;SDS011;47126;47.508;8.590;2022-12-07T05:30:57;52.53;;;23.67;;
61250;SDS011;47126;47.508;8.590;2022-12-07T05:33:22;52.65;;;24.08;;
61250;SDS011;47126;47.508;8.590;2022-12-07T05:35:48;53.08;;;24.10;;
61250;SDS011;47126;47.508;8.590;2022-12-07T05:38:14;52.35;;;23.48;;
61250;SDS011;47126;47.508;8.590;2022-12-07T05:40:40;51.08;;;23.15;;
61250;SDS011;47126;47.508;8.590;2022-12-07T05:43:06;49.65;;;22.92;;
61250;SDS011;47126;47.508;8.590;2022-12-07T05:45:32;55.17;;;24.00;;
61250;SDS011;47126;47.508;8.590;2022-12-07T05:47:58;49.92;;;22.58;;
61250;SDS011;47126;47.508;8.590;2022-12-07T05:50:24;49.20;;;22.52;;
61250;SDS011;47126;47.508;8.590;2022-12-07T05:52:50;51.92;;;22.70;;
61250;SDS011;47126;47.508;8.590;2022-12-07T05:55:16;51.25;;;23.10;;
61250;SDS011;47126;47.508;8.590;2022-12-07T05:57:42;53.55;;;23.58;;
61250;SDS011;47126;47.508;8.590;2022-12-07T06:00:28;53.22;;;24.10;;
61250;SDS011;47126;47.508;8.590;2022-12-07T06:02:54;55.63;;;25.58;;
61250;SDS011;47126;47.508;8.590;2022-12-07T06:05:20;60.85;;;25.65;;
61250;SDS011;47126;47.508;8.590;2022-12-07T06:07:46;56.25;;;24.77;;
61250;SDS011;47126;47.508;8.590;2022-12-07T06:10:12;59.22;;;23.67;;
61250;SDS011;47126;47.508;8.590;2022-12-07T06:12:38;54.70;;;23.90;;
61250;SDS011;47126;47.508;8.590;2022-12-07T06:15:07;54.17;;;23.77;;
61250;SDS011;47126;47.508;8.590;2022-12-07T06:17:33;51.95;;;23.38;;
61250;SDS011;47126;47.508;8.590;2022-12-07T06:19:59;55.67;;;24.60;;
61250;SDS011;47126;47.508;8.590;2022-12-07T06:22:25;53.70;;;22.05;;
61250;SDS011;47126;47.508;8.590;2022-12-07T06:24:51;53.50;;;24.70;;
61250;SDS011;47126;47.508;8.590;2022-12-07T06:27:17;63.05;;;24.65;;
61250;SDS011;47126;47.508;8.590;2022-12-07T06:29:43;55.83;;;24.58;;
61250;SDS011;47126;47.508;8.590;2022-12-07T06:32:09;57.13;;;25.33;;
61250;SDS011;47126;47.508;8.590;2022-12-07T06:34:36;56.60;;;25.63;;
61250;SDS011;47126;47.508;8.590;2022-12-07T06:37:02;56.45;;;25.38;;
61250;SDS011;47126;47.508;8.590;2022-12-07T06:39:28;57.95;;;24.45;;
61250;SDS011;47126;47.508;8.590;2022-12-07T06:41:54;54.78;;;24.35;;
61250;SDS011;47126;47.508;8.590;2022-12-07T06:44:20;61.20;;;25.98;;
61250;SDS011;47126;47.508;8.590;2022-12-07T06:46:47;54.47;;;24.48;;
61250;SDS011;47126;47.508;8.590;2022-12-07T06:49:13;58.08;;;25.90;;
61250;SDS011;47126;47.508;8.590;2022-12-07T06:51:39;57.40;;;24.80;;
61250;SDS011;47126;47.508;8.590;2022-12-07T06:54:08;55.65;;;25.13;;
61250;SDS011;47126;47.508;8.590;2022-12-07T06:56:34;56.13;;;25.00;;
61250;SDS011;47126;47.508;8.590;2022-12-07T06:59:00;61.65;;;27.02;;
61250;SDS011;47126;47.508;8.590;2022-12-07T07:01:27;59.47;;;26.33;;
61250;SDS011;47126;47.508;8.590;2022-12-07T07:03:53;55.53;;;26.13;;
61250;SDS011;47126;47.508;8.590;2022-12-07T07:06:19;55.90;;;25.65;;
61250;SDS011;47126;47.508;8.590;2022-12-07T07:08:45;55.75;;;25.13;;
61250;SDS011;47126;47.508;8.590;2022-12-07T07:11:11;56.08;;;25.17;;
61250;SDS011;47126;47.508;8.590;2022-12-07T07:13:38;56.22;;;24.83;;
61250;SDS011;47126;47.508;8.590;2022-12-07T07:16:04;59.50;;;25.92;;
61250;SDS011;47126;47.508;8.590;2022-12-07T07:18:30;54.65;;;24.20;;
61250;SDS011;47126;47.508;8.590;2022-12-07T07:20:56;58.28;;;25.27;;
61250;SDS011;47126;47.508;8.590;2022-12-07T07:23:22;54.55;;;24.02;;
61250;SDS011;47126;47.508;8.590;2022-12-07T07:25:48;60.72;;;25.83;;
61250;SDS011;47126;47.508;8.590;2022-12-07T07:28:14;55.42;;;24.70;;
61250;SDS011;47126;47.508;8.590;2022-12-07T07:30:40;64.85;;;26.38;;
61250;SDS011;47126;47.508;8.590;2022-12-07T07:33:07;60.92;;;25.13;;
61250;SDS011;47126;47.508;8.590;2022-12-07T07:35:33;58.30;;;26.02;;
61250;SDS011;47126;47.508;8.590;2022-12-07T07:38:00;58.75;;;26.38;;
61250;SDS011;47126;47.508;8.590;2022-12-07T07:40:26;60.70;;;28.05;;
61250;SDS011;47126;47.508;8.590;2022-12-07T07:42:53;65.30;;;26.67;;
61250;SDS011;47126;47.508;8.590;2022-12-07T07:45:20;61.05;;;25.35;;
61250;SDS011;47126;47.508;8.590;2022-12-07T07:47:47;62.92;;;29.10;;
61250;SDS011;47126;47.508;8.590;2022-12-07T07:50:13;65.55;;;29.23;;
61250;SDS011;47126;47.508;8.590;2022-12-07T07:52:40;62.72;;;26.58;;
61250;SDS011;47126;47.508;8.590;2022-12-07T07:55:06;64.38;;;25.90;;
61250;SDS011;47126;47.508;8.590;2022-12-07T07:57:33;58.88;;;25.42;;
61250;SDS011;47126;47.508;8.590;2022-12-07T07:59:59;57.83;;;26.10;;
61250;SDS011;47126;47.508;8.590;2022-12-07T08:02:25;56.72;;;26.30;;
61250;SDS011;47126;47.508;8.590;2022-12-07T08:04:54;56.45;;;26.02;;
61250;SDS011;47126;47.508;8.590;2022-12-07T08:07:20;59.08;;;24.98;;
61250;SDS011;47126;47.508;8.590;2022-12-07T08:09:46;58.38;;;23.88;;
61250;SDS011;47126;47.508;8.590;2022-12-07T08:12:12;59.65;;;25.70;;
61250;SDS011;47126;47.508;8.590;2022-12-07T08:14:38;60.88;;;26.17;;
61250;SDS011;47126;47.508;8.590;2022-12-07T08:17:04;63.78;;;27.65;;
61250;SDS011;47126;47.508;8.590;2022-12-07T08:19:30;69.57;;;35.80;;
61250;SDS011;47126;47.508;8.590;2022-12-07T08:21:56;68.97;;;32.85;;
61250;SDS011;47126;47.508;8.590;2022-12-07T08:24:22;64.00;;;30.25;;
61250;SDS011;47126;47.508;8.590;2022-12-07T08:26:50;58.92;;;25.90;;
61250;SDS011;47126;47.508;8.590;2022-12-07T08:29:16;59.45;;;25.38;;
61250;SDS011;47126;47.508;8.590;2022-12-07T08:31:42;131.45;;;60.10;;
61250;SDS011;47126;47.508;8.590;2022-12-07T08:34:09;109.63;;;47.88;;
61250;SDS011;47126;47.508;8.590;2022-12-07T08:36:36;70.47;;;32.08;;
61250;SDS011;47126;47.508;8.590;2022-12-07T08:39:01;230.43;;;88.22;;
61250;SDS011;47126;47.508;8.590;2022-12-07T08:41:27;72.93;;;33.28;;
61250;SDS011;47126;47.508;8.590;2022-12-07T08:43:53;126.75;;;45.75;;
61250;SDS011;47126;47.508;8.590;2022-12-07T08:46:24;63.50;;;27.25;;
61250;SDS011;47126;47.508;8.590;2022-12-07T08:48:52;55.47;;;25.83;;
61250;SDS011;47126;47.508;8.590;2022-12-07T08:51:19;67.28;;;27.33;;
61250;SDS011;47126;47.508;8.590;2022-12-07T08:53:46;56.55;;;26.17;;
61250;SDS011;47126;47.508;8.590;2022-12-07T08:56:12;68.28;;;27.70;;
61250;SDS011;47126;47.508;8.590;2022-12-07T08:58:39;64.47;;;27.33;;
61250;SDS011;47126;47.508;8.590;2022-12-07T09:01:05;57.63;;;26.98;;
61250;SDS011;47126;47.508;8.590;2022-12-07T09:03:31;57.47;;;26.20;;
61250;SDS011;47126;47.508;8.590;2022-12-07T09:05:57;67.75;;;27.27;;
61250;SDS011;47126;47.508;8.590;2022-12-07T09:08:25;60.30;;;25.83;;
61250;SDS011;47126;47.508;8.590;2022-12-07T09:10:52;60.80;;;24.83;;
61250;SDS011;47126;47.508;8.590;2022-12-07T09:13:18;53.80;;;24.60;;
61250;SDS011;47126;47.508;8.590;2022-12-07T09:15:44;57.05;;;25.50;;
61250;SDS011;47126;47.508;8.590;2022-12-07T09:18:10;53.22;;;24.10;;
61250;SDS011;47126;47.508;8.590;2022-12-07T09:20:35;56.45;;;25.08;;
61250;SDS011;47126;47.508;8.590;2022-12-07T09:23:01;51.17;;;24.48;;
61250;SDS011;47126;47.508;8.590;2022-12-07T09:25:27;53.63;;;24.90;;
61250;SDS011;47126;47.508;8.590;2022-12-07T09:27:57;55.38;;;25.38;;
61250;SDS011;47126;47.508;8.590;2022-12-07T09:30:23;59.00;;;25.77;;
61250;SDS011;47126;47.508;8.590;2022-12-07T09:32:49;57.60;;;24.83;;
61250;SDS011;47126;47.508;8.590;2022-12-07T09:35:15;54.55;;;25.63;;
61250;SDS011;47126;47.508;8.590;2022-12-07T09:37:41;57.63;;;27.52;;
61250;SDS011;47126;47.508;8.590;2022-12-07T09:40:07;55.97;;;25.88;;
61250;SDS011;47126;47.508;8.590;2022-12-07T09:42:37;57.58;;;25.67;;
61250;SDS011;47126;47.508;8.590;2022-12-07T09:45:13;58.45;;;25.85;;
61250;SDS011;47126;47.508;8.590;2022-12-07T09:47:40;55.25;;;23.63;;
61250;SDS011;47126;47.508;8.590;2022-12-07T09:50:10;55.70;;;25.58;;
61250;SDS011;47126;47.508;8.590;2022-12-07T09:52:37;54.22;;;24.65;;
61250;SDS011;47126;47.508;8.590;2022-12-07T09:55:08;57.55;;;26.00;;
61250;SDS011;47126;47.508;8.590;2022-12-07T09:57:34;50.22;;;24.17;;
61250;SDS011;47126;47.508;8.590;2022-12-07T10:00:03;52.08;;;24.10;;
61250;SDS011;47126;47.508;8.590;2022-12-07T10:02:39;53.10;;;23.65;;
61250;SDS011;47126;47.508;8.590;2022-12-07T10:05:07;58.17;;;24.95;;
61250;SDS011;47126;47.508;8.590;2022-12-07T10:07:36;55.28;;;24.70;;
61250;SDS011;47126;47.508;8.590;2022-12-07T10:10:03;50.88;;;24.40;;
61250;SDS011;47126;47.508;8.590;2022-12-07T10:12:29;54.15;;;24.58;;
61250;SDS011;47126;47.508;8.590;2022-12-07T10:14:57;51.60;;;23.88;;
61250;SDS011;47126;47.508;8.590;2022-12-07T10:19:52;50.30;;;23.30;;
61250;SDS011;47126;47.508;8.590;2022-12-07T10:22:33;54.40;;;24.42;;
61250;SDS011;47126;47.508;8.590;2022-12-07T10:25:07;45.33;;;21.65;;
61250;SDS011;47126;47.508;8.590;2022-12-07T10:27:33;45.75;;;20.10;;
61250;SDS011;47126;47.508;8.590;2022-12-07T10:29:59;48.67;;;20.85;;
61250;SDS011;47126;47.508;8.590;2022-12-07T10:32:28;47.38;;;20.88;;
61250;SDS011;47126;47.508;8.590;2022-12-07T10:37:40;51.45;;;20.63;;
61250;SDS011;47126;47.508;8.590;2022-12-07T10:40:22;41.15;;;18.58;;
61250;SDS011;47126;47.508;8.590;2022-12-07T10:42:59;47.25;;;21.23;;
61250;SDS011;47126;47.508;8.590;2022-12-07T10:45:25;39.92;;;18.73;;
61250;SDS011;47126;47.508;8.590;2022-12-07T10:50:28;45.75;;;20.73;;
61250;SDS011;47126;47.508;8.590;2022-12-07T10:55:25;45.22;;;22.42;;
61250;SDS011;47126;47.508;8.590;2022-12-07T11:00:23;37.20;;;17.73;;
61250;SDS011;47126;47.508;8.590;2022-12-07T11:05:22;37.58;;;17.48;;
61250;SDS011;47126;47.508;8.590;2022-12-07T11:13:28;36.17;;;16.50;;
61250;SDS011;47126;47.508;8.590;2022-12-07T11:18:47;32.97;;;16.10;;
61250;SDS011;47126;47.508;8.590;2022-12-07T11:24:01;35.65;;;15.57;;
61250;SDS011;47126;47.508;8.590;2022-12-07T11:34:13;30.13;;;13.85;;
61250;SDS011;47126;47.508;8.590;2022-12-07T11:36:43;36.55;;;18.55;;
61250;SDS011;47126;47.508;8.590;2022-12-07T11:41:41;43.00;;;21.45;;
61250;SDS011;47126;47.508;8.590;2022-12-07T11:44:13;26.95;;;14.05;;
61250;SDS011;47126;47.508;8.590;2022-12-07T11:51:38;25.98;;;13.18;;
61250;SDS011;47126;47.508;8.590;2022-12-07T11:54:09;27.17;;;13.02;;
61250;SDS011;47126;47.508;8.590;2022-12-07T11:56:37;26.13;;;13.20;;
61250;SDS011;47126;47.508;8.590;2022-12-07T11:59:06;25.23;;;12.18;;
61250;SDS011;47126;47.508;8.590;2022-12-07T12:06:42;23.45;;;11.65;;
61250;SDS011;47126;47.508;8.590;2022-12-07T12:22:15;22.35;;;10.38;;
61250;SDS011;47126;47.508;8.590;2022-12-07T12:27:14;21.48;;;10.55;;
61250;SDS011;47126;47.508;8.590;2022-12-07T12:29:44;19.77;;;9.90;;
61250;SDS011;47126;47.508;8.590;2022-12-07T12:32:14;19.48;;;9.85;;
61250;SDS011;47126;47.508;8.590;2022-12-07T12:37:38;18.05;;;9.20;;
61250;SDS011;47126;47.508;8.590;2022-12-07T12:42:58;18.15;;;9.50;;
61250;SDS011;47126;47.508;8.590;2022-12-07T12:45:25;21.08;;;10.55;;
61250;SDS011;47126;47.508;8.590;2022-12-07T12:47:52;20.92;;;10.40;;
61250;SDS011;47126;47.508;8.590;2022-12-07T12:50:20;23.40;;;11.80;;
61250;SDS011;47126;47.508;8.590;2022-12-07T12:52:48;19.75;;;9.52;;
61250;SDS011;47126;47.508;8.590;2022-12-07T12:55:17;18.50;;;9.32;;
61250;SDS011;47126;47.508;8.590;2022-12-07T12:57:45;19.75;;;10.98;;
61250;SDS011;47126;47.508;8.590;2022-12-07T13:00:22;17.45;;;9.25;;
61250;SDS011;47126;47.508;8.590;2022-12-07T13:05:18;19.73;;;10.00;;
61250;SDS011;47126;47.508;8.590;2022-12-07T13:17:59;19.13;;;9.23;;
61250;SDS011;47126;47.508;8.590;2022-12-07T13:20:45;17.20;;;8.80;;
61250;SDS011;47126;47.508;8.590;2022-12-07T13:23:12;20.00;;;9.48;;
61250;SDS011;47126;47.508;8.590;2022-12-07T13:25:44;16.13;;;9.25;;
61250;SDS011;47126;47.508;8.590;2022-12-07T13:28:15;22.35;;;10.00;;
61250;SDS011;47126;47.508;8.590;2022-12-07T13:30:44;20.10;;;9.75;;
61250;SDS011;47126;47.508;8.590;2022-12-07T13:33:11;19.45;;;9.77;;
61250;SDS011;47126;47.508;8.590;2022-12-07T13:35:38;29.55;;;16.67;;
61250;SDS011;47126;47.508;8.590;2022-12-07T13:38:05;21.58;;;9.25;;
61250;SDS011;47126;47.508;8.590;2022-12-07T13:40:32;108.07;;;54.38;;
61250;SDS011;47126;47.508;8.590;2022-12-07T13:42:59;19.23;;;9.13;;
61250;SDS011;47126;47.508;8.590;2022-12-07T13:45:26;17.35;;;9.15;;
61250;SDS011;47126;47.508;8.590;2022-12-07T13:48:19;19.73;;;9.18;;
61250;SDS011;47126;47.508;8.590;2022-12-07T13:50:53;18.27;;;8.10;;
61250;SDS011;47126;47.508;8.590;2022-12-07T13:53:20;18.55;;;9.32;;
61250;SDS011;47126;47.508;8.590;2022-12-07T13:55:46;17.20;;;8.50;;
61250;SDS011;47126;47.508;8.590;2022-12-07T13:58:13;17.85;;;8.57;;
61250;SDS011;47126;47.508;8.590;2022-12-07T14:00:39;16.85;;;8.60;;
61250;SDS011;47126;47.508;8.590;2022-12-07T14:05:41;16.55;;;8.48;;
61250;SDS011;47126;47.508;8.590;2022-12-07T14:15:51;22.52;;;8.50;;
61250;SDS011;47126;47.508;8.590;2022-12-07T14:18:24;21.33;;;9.00;;
61250;SDS011;47126;47.508;8.590;2022-12-07T14:20:52;18.35;;;9.20;;
61250;SDS011;47126;47.508;8.590;2022-12-07T14:23:28;24.80;;;11.02;;
61250;SDS011;47126;47.508;8.590;2022-12-07T14:26:03;25.13;;;12.50;;
61250;SDS011;47126;47.508;8.590;2022-12-07T14:28:31;22.25;;;11.02;;
61250;SDS011;47126;47.508;8.590;2022-12-07T14:30:57;22.10;;;11.25;;
61250;SDS011;47126;47.508;8.590;2022-12-07T14:33:23;21.42;;;10.50;;
61250;SDS011;47126;47.508;8.590;2022-12-07T14:35:50;19.45;;;10.32;;
61250;SDS011;47126;47.508;8.590;2022-12-07T14:38:20;23.02;;;11.25;;
61250;SDS011;47126;47.508;8.590;2022-12-07T14:40:47;20.13;;;10.60;;
61250;SDS011;47126;47.508;8.590;2022-12-07T14:43:14;22.40;;;11.02;;
61250;SDS011;47126;47.508;8.590;2022-12-07T14:45:40;20.73;;;10.90;;
61250;SDS011;47126;47.508;8.590;2022-12-07T14:48:13;21.33;;;10.35;;
61250;SDS011;47126;47.508;8.590;2022-12-07T14:50:48;21.33;;;10.43;;
61250;SDS011;47126;47.508;8.590;2022-12-07T14:53:16;20.83;;;10.18;;
61250;SDS011;47126;47.508;8.590;2022-12-07T14:55:42;21.95;;;10.95;;
61250;SDS011;47126;47.508;8.590;2022-12-07T14:58:15;23.33;;;11.30;;
61250;SDS011;47126;47.508;8.590;2022-12-07T15:00:42;26.23;;;11.38;;
61250;SDS011;47126;47.508;8.590;2022-12-07T15:03:08;21.40;;;11.07;;
61250;SDS011;47126;47.508;8.590;2022-12-07T15:05:34;21.33;;;10.68;;
61250;SDS011;47126;47.508;8.590;2022-12-07T15:08:00;22.60;;;11.18;;
61250;SDS011;47126;47.508;8.590;2022-12-07T15:10:28;24.80;;;11.40;;
61250;SDS011;47126;47.508;8.590;2022-12-07T15:12:56;20.10;;;10.70;;
61250;SDS011;47126;47.508;8.590;2022-12-07T15:15:49;20.35;;;10.60;;
61250;SDS011;47126;47.508;8.590;2022-12-07T15:18:15;20.70;;;10.07;;
61250;SDS011;47126;47.508;8.590;2022-12-07T15:20:41;20.83;;;9.80;;
61250;SDS011;47126;47.508;8.590;2022-12-07T15:23:07;20.50;;;9.98;;
61250;SDS011;47126;47.508;8.590;2022-12-07T15:25:34;20.35;;;10.32;;
61250;SDS011;47126;47.508;8.590;2022-12-07T15:28:00;22.58;;;10.15;;
61250;SDS011;47126;47.508;8.590;2022-12-07T15:30:27;20.55;;;10.02;;
61250;SDS011;47126;47.508;8.590;2022-12-07T15:32:53;20.13;;;10.35;;
61250;SDS011;47126;47.508;8.590;2022-12-07T15:35:19;23.48;;;11.20;;
61250;SDS011;47126;47.508;8.590;2022-12-07T15:37:46;20.35;;;10.15;;
61250;SDS011;47126;47.508;8.590;2022-12-07T15:40:13;23.65;;;10.70;;
61250;SDS011;47126;47.508;8.590;2022-12-07T15:42:39;21.48;;;10.35;;
61250;SDS011;47126;47.508;8.590;2022-12-07T15:45:06;20.52;;;10.63;;
61250;SDS011;47126;47.508;8.590;2022-12-07T15:47:37;18.30;;;9.30;;
61250;SDS011;47126;47.508;8.590;2022-12-07T15:50:05;19.85;;;10.23;;
61250;SDS011;47126;47.508;8.590;2022-12-07T15:52:32;19.13;;;10.02;;
61250;SDS011;47126;47.508;8.590;2022-12-07T15:54:58;22.00;;;10.30;;
61250;SDS011;47126;47.508;8.590;2022-12-07T15:57:30;21.90;;;9.98;;
61250;SDS011;47126;47.508;8.590;2022-12-07T15:59:56;19.27;;;9.23;;
61250;SDS011;47126;47.508;8.590;2022-12-07T16:02:23;19.92;;;9.70;;
61250;SDS011;47126;47.508;8.590;2022-12-07T16:04:49;20.13;;;10.48;;
61250;SDS011;47126;47.508;8.590;2022-12-07T16:07:15;21.98;;;9.80;;
61250;SDS011;47126;47.508;8.590;2022-12-07T16:09:42;24.40;;;11.00;;
61250;SDS011;47126;47.508;8.590;2022-12-07T16:12:08;21.92;;;9.60;;
61250;SDS011;47126;47.508;8.590;2022-12-07T16:14:34;18.63;;;8.65;;
61250;SDS011;47126;47.508;8.590;2022-12-07T16:17:00;22.55;;;10.85;;
61250;SDS011;47126;47.508;8.590;2022-12-07T16:19:26;22.30;;;9.57;;
61250;SDS011;47126;47.508;8.590;2022-12-07T16:21:52;21.58;;;10.02;;
61250;SDS011;47126;47.508;8.590;2022-12-07T16:24:18;20.63;;;10.15;;
61250;SDS011;47126;47.508;8.590;2022-12-07T16:26:44;19.70;;;10.60;;
61250;SDS011;47126;47.508;8.590;2022-12-07T16:29:11;21.55;;;10.45;;
61250;SDS011;47126;47.508;8.590;2022-12-07T16:31:37;24.85;;;11.48;;
61250;SDS011;47126;47.508;8.590;2022-12-07T16:34:03;20.98;;;9.65;;
61250;SDS011;47126;47.508;8.590;2022-12-07T16:36:29;23.65;;;10.77;;